sensor_id;sensor_type;location;lat;lon;timestamp;temperature;humidity
66119;DHT22;52912;48.564;9.302;2022-11-15T00:01:25;8.81;85.40
66119;DHT22;52912;48.564;9.302;2022-11-15T00:03:51;8.73;85.55
66119;DHT22;52912;48.564;9.302;2022-11-15T00:06:17;8.65;85.86
66119;DHT22;52912;48.564;9.302;2022-11-15T00:08:43;8.56;86.21
66119;DHT22;52912;48.564;9.302;2022-11-15T00:11:10;8.52;86.38
66119;DHT22;52912;48.564;9.302;2022-11-15T00:13:36;8.53;86.42
66119;DHT22;52912;48.564;9.302;2022-11-15T00:16:03;8.35;87.42
66119;DHT22;52912;48.564;9.302;2022-11-15T00:18:30;8.33;87.60
66119;DHT22;52912;48.564;9.302;2022-11-15T00:20:56;8.28;87.47
66119;DHT22;52912;48.564;9.302;2022-11-15T00:23:21;8.25;87.58
66119;DHT22;52912;48.564;9.302;2022-11-15T00:25:47;8.21;88.02
66119;DHT22;52912;48.564;9.302;2022-11-15T00:28:19;8.13;88.18
66119;DHT22;52912;48.564;9.302;2022-11-15T00:30:45;8.12;88.17
66119;DHT22;52912;48.564;9.302;2022-11-15T00:33:12;8.13;88.01
66119;DHT22;52912;48.564;9.302;2022-11-15T00:35:37;8.09;88.00
66119;DHT22;52912;48.564;9.302;2022-11-15T00:38:03;8.06;88.10
66119;DHT22;52912;48.564;9.302;2022-11-15T00:40:28;7.95;88.49
66119;DHT22;52912;48.564;9.302;2022-11-15T00:42:54;7.88;88.62
66119;DHT22;52912;48.564;9.302;2022-11-15T00:45:20;7.84;88.74
66119;DHT22;52912;48.564;9.302;2022-11-15T00:47:45;7.81;89.17
66119;DHT22;52912;48.564;9.302;2022-11-15T00:50:12;7.77;88.81
66119;DHT22;52912;48.564;9.302;2022-11-15T00:52:38;7.71;89.12
66119;DHT22;52912;48.564;9.302;2022-11-15T00:55:04;7.67;89.27
66119;DHT22;52912;48.564;9.302;2022-11-15T00:57:30;7.59;89.49
66119;DHT22;52912;48.564;9.302;2022-11-15T00:59:55;7.52;89.72
66119;DHT22;52912;48.564;9.302;2022-11-15T01:02:21;7.50;89.63
66119;DHT22;52912;48.564;9.302;2022-11-15T01:04:46;7.43;89.83
66119;DHT22;52912;48.564;9.302;2022-11-15T01:07:13;7.33;90.07
66119;DHT22;52912;48.564;9.302;2022-11-15T01:09:39;7.35;90.12
66119;DHT22;52912;48.564;9.302;2022-11-15T01:12:04;7.32;90.06
66119;DHT22;52912;48.564;9.302;2022-11-15T01:14:30;7.26;89.76
66119;DHT22;52912;48.564;9.302;2022-11-15T01:16:55;7.32;90.29
66119;DHT22;52912;48.564;9.302;2022-11-15T01:19:21;7.36;90.41
66119;DHT22;52912;48.564;9.302;2022-11-15T01:21:48;7.33;89.94
66119;DHT22;52912;48.564;9.302;2022-11-15T01:24:15;7.30;89.71
66119;DHT22;52912;48.564;9.302;2022-11-15T01:26:41;7.16;89.89
66119;DHT22;52912;48.564;9.302;2022-11-15T01:29:06;7.12;90.21
66119;DHT22;52912;48.564;9.302;2022-11-15T01:31:32;7.08;90.20
66119;DHT22;52912;48.564;9.302;2022-11-15T01:33:57;7.01;90.63
66119;DHT22;52912;48.564;9.302;2022-11-15T01:36:23;6.98;90.71
66119;DHT22;52912;48.564;9.302;2022-11-15T01:38:53;7.01;90.40
66119;DHT22;52912;48.564;9.302;2022-11-15T01:41:22;6.95;90.54
66119;DHT22;52912;48.564;9.302;2022-11-15T01:43:50;6.95;91.05
66119;DHT22;52912;48.564;9.302;2022-11-15T01:46:24;6.93;90.81
66119;DHT22;52912;48.564;9.302;2022-11-15T01:48:51;6.88;90.49
66119;DHT22;52912;48.564;9.302;2022-11-15T01:51:19;6.88;90.62
66119;DHT22;52912;48.564;9.302;2022-11-15T01:53:48;6.74;90.93
66119;DHT22;52912;48.564;9.302;2022-11-15T01:56:19;6.70;91.20
66119;DHT22;52912;48.564;9.302;2022-11-15T01:58:46;6.67;91.16
66119;DHT22;52912;48.564;9.302;2022-11-15T02:01:13;6.59;91.56
66119;DHT22;52912;48.564;9.302;2022-11-15T02:03:43;6.60;91.20
66119;DHT22;52912;48.564;9.302;2022-11-15T02:06:11;6.56;91.70
66119;DHT22;52912;48.564;9.302;2022-11-15T02:08:37;6.49;91.40
66119;DHT22;52912;48.564;9.302;2022-11-15T02:11:04;6.49;91.51
66119;DHT22;52912;48.564;9.302;2022-11-15T02:13:29;6.39;91.83
66119;DHT22;52912;48.564;9.302;2022-11-15T02:16:03;6.38;92.26
66119;DHT22;52912;48.564;9.302;2022-11-15T02:18:35;6.38;92.28
66119;DHT22;52912;48.564;9.302;2022-11-15T02:21:11;6.26;92.70
66119;DHT22;52912;48.564;9.302;2022-11-15T02:24:16;6.25;92.50
66119;DHT22;52912;48.564;9.302;2022-11-15T02:29:56;6.15;92.59
66119;DHT22;52912;48.564;9.302;2022-11-15T02:32:30;6.05;92.43
66119;DHT22;52912;48.564;9.302;2022-11-15T02:35:02;6.04;92.41
66119;DHT22;52912;48.564;9.302;2022-11-15T02:37:33;6.00;93.43
66119;DHT22;52912;48.564;9.302;2022-11-15T02:40:06;6.14;94.23
66119;DHT22;52912;48.564;9.302;2022-11-15T02:42:36;6.22;94.08
66119;DHT22;52912;48.564;9.302;2022-11-15T02:45:07;6.35;93.47
66119;DHT22;52912;48.564;9.302;2022-11-15T02:47:42;6.43;93.01
66119;DHT22;52912;48.564;9.302;2022-11-15T02:50:10;6.39;92.89
66119;DHT22;52912;48.564;9.302;2022-11-15T02:52:36;6.36;93.34
66119;DHT22;52912;48.564;9.302;2022-11-15T02:55:02;6.33;93.19
66119;DHT22;52912;48.564;9.302;2022-11-15T02:57:35;6.43;93.42
66119;DHT22;52912;48.564;9.302;2022-11-15T03:00:08;6.38;93.55
66119;DHT22;52912;48.564;9.302;2022-11-15T03:02:47;6.33;93.42
66119;DHT22;52912;48.564;9.302;2022-11-15T03:05:20;6.31;94.03
66119;DHT22;52912;48.564;9.302;2022-11-15T03:07:54;6.29;94.11
66119;DHT22;52912;48.564;9.302;2022-11-15T03:10:25;6.36;94.20
66119;DHT22;52912;48.564;9.302;2022-11-15T03:12:54;6.39;93.64
66119;DHT22;52912;48.564;9.302;2022-11-15T03:15:23;6.29;93.64
66119;DHT22;52912;48.564;9.302;2022-11-15T03:17:55;6.24;93.90
66119;DHT22;52912;48.564;9.302;2022-11-15T03:20:25;6.22;93.98
66119;DHT22;52912;48.564;9.302;2022-11-15T03:22:53;6.24;93.82
66119;DHT22;52912;48.564;9.302;2022-11-15T03:25:22;6.26;93.71
66119;DHT22;52912;48.564;9.302;2022-11-15T03:27:51;6.26;93.78
66119;DHT22;52912;48.564;9.302;2022-11-15T03:30:19;6.26;93.82
66119;DHT22;52912;48.564;9.302;2022-11-15T03:32:47;6.24;93.57
66119;DHT22;52912;48.564;9.302;2022-11-15T03:35:19;6.20;93.53
66119;DHT22;52912;48.564;9.302;2022-11-15T03:37:49;6.22;93.21
66119;DHT22;52912;48.564;9.302;2022-11-15T03:40:17;6.33;92.81
66119;DHT22;52912;48.564;9.302;2022-11-15T03:42:46;6.35;92.53
66119;DHT22;52912;48.564;9.302;2022-11-15T03:45:16;6.43;93.14
66119;DHT22;52912;48.564;9.302;2022-11-15T03:47:46;6.35;93.70
66119;DHT22;52912;48.564;9.302;2022-11-15T03:50:18;6.25;93.70
66119;DHT22;52912;48.564;9.302;2022-11-15T03:52:45;6.18;94.07
66119;DHT22;52912;48.564;9.302;2022-11-15T03:55:13;6.11;94.22
66119;DHT22;52912;48.564;9.302;2022-11-15T03:57:40;6.12;94.25
66119;DHT22;52912;48.564;9.302;2022-11-15T04:00:06;6.12;94.18
66119;DHT22;52912;48.564;9.302;2022-11-15T04:02:32;6.12;93.98
66119;DHT22;52912;48.564;9.302;2022-11-15T04:04:57;5.95;93.82
66119;DHT22;52912;48.564;9.302;2022-11-15T04:07:24;5.78;93.51
66119;DHT22;52912;48.564;9.302;2022-11-15T04:09:50;5.66;93.91
66119;DHT22;52912;48.564;9.302;2022-11-15T04:12:15;5.49;94.10
66119;DHT22;52912;48.564;9.302;2022-11-15T04:14:41;5.42;94.18
66119;DHT22;52912;48.564;9.302;2022-11-15T04:17:06;5.30;94.96
66119;DHT22;52912;48.564;9.302;2022-11-15T04:19:31;5.20;95.27
66119;DHT22;52912;48.564;9.302;2022-11-15T04:21:57;5.18;95.33
66119;DHT22;52912;48.564;9.302;2022-11-15T04:24:24;5.11;95.44
66119;DHT22;52912;48.564;9.302;2022-11-15T04:26:49;5.17;95.01
66119;DHT22;52912;48.564;9.302;2022-11-15T04:29:15;5.18;95.18
66119;DHT22;52912;48.564;9.302;2022-11-15T04:31:40;5.11;95.45
66119;DHT22;52912;48.564;9.302;2022-11-15T04:34:05;5.14;95.30
66119;DHT22;52912;48.564;9.302;2022-11-15T04:36:31;5.10;95.84
66119;DHT22;52912;48.564;9.302;2022-11-15T04:38:57;5.13;95.66
66119;DHT22;52912;48.564;9.302;2022-11-15T04:41:23;5.20;95.27
66119;DHT22;52912;48.564;9.302;2022-11-15T04:43:49;5.15;95.32
66119;DHT22;52912;48.564;9.302;2022-11-15T04:46:14;5.11;95.56
66119;DHT22;52912;48.564;9.302;2022-11-15T04:48:40;5.20;95.07
66119;DHT22;52912;48.564;9.302;2022-11-15T04:51:05;5.13;95.15
66119;DHT22;52912;48.564;9.302;2022-11-15T04:53:31;5.14;94.96
66119;DHT22;52912;48.564;9.302;2022-11-15T04:55:56;5.13;95.18
66119;DHT22;52912;48.564;9.302;2022-11-15T04:58:23;5.17;95.04
66119;DHT22;52912;48.564;9.302;2022-11-15T05:00:48;5.11;95.75
66119;DHT22;52912;48.564;9.302;2022-11-15T05:03:14;5.13;95.63
66119;DHT22;52912;48.564;9.302;2022-11-15T05:05:39;5.15;95.68
66119;DHT22;52912;48.564;9.302;2022-11-15T05:08:05;5.17;95.38
66119;DHT22;52912;48.564;9.302;2022-11-15T05:10:31;5.17;95.27
66119;DHT22;52912;48.564;9.302;2022-11-15T05:12:56;5.11;95.55
66119;DHT22;52912;48.564;9.302;2022-11-15T05:15:23;5.11;96.35
66119;DHT22;52912;48.564;9.302;2022-11-15T05:17:48;5.17;96.13
66119;DHT22;52912;48.564;9.302;2022-11-15T05:20:14;5.18;95.72
66119;DHT22;52912;48.564;9.302;2022-11-15T05:22:39;5.20;95.52
66119;DHT22;52912;48.564;9.302;2022-11-15T05:25:06;5.17;95.33
66119;DHT22;52912;48.564;9.302;2022-11-15T05:27:32;5.20;95.64
66119;DHT22;52912;48.564;9.302;2022-11-15T05:29:58;5.30;95.84
66119;DHT22;52912;48.564;9.302;2022-11-15T05:32:25;5.28;95.73
66119;DHT22;52912;48.564;9.302;2022-11-15T05:34:51;5.31;95.86
66119;DHT22;52912;48.564;9.302;2022-11-15T05:37:17;5.32;95.31
66119;DHT22;52912;48.564;9.302;2022-11-15T05:39:43;5.28;95.49
66119;DHT22;52912;48.564;9.302;2022-11-15T05:42:10;5.28;95.55
66119;DHT22;52912;48.564;9.302;2022-11-15T05:44:37;5.24;95.93
66119;DHT22;52912;48.564;9.302;2022-11-15T05:47:06;5.27;95.58
66119;DHT22;52912;48.564;9.302;2022-11-15T05:49:36;5.25;95.64
66119;DHT22;52912;48.564;9.302;2022-11-15T05:52:05;5.24;96.13
66119;DHT22;52912;48.564;9.302;2022-11-15T05:54:32;5.20;96.38
66119;DHT22;52912;48.564;9.302;2022-11-15T05:56:58;5.25;96.29
66119;DHT22;52912;48.564;9.302;2022-11-15T05:59:23;5.27;96.13
66119;DHT22;52912;48.564;9.302;2022-11-15T06:01:49;5.24;96.00
66119;DHT22;52912;48.564;9.302;2022-11-15T06:04:14;5.20;95.86
66119;DHT22;52912;48.564;9.302;2022-11-15T06:06:41;5.21;96.06
66119;DHT22;52912;48.564;9.302;2022-11-15T06:09:07;5.22;96.35
66119;DHT22;52912;48.564;9.302;2022-11-15T06:11:32;5.22;95.96
66119;DHT22;52912;48.564;9.302;2022-11-15T06:13:58;5.17;95.68
66119;DHT22;52912;48.564;9.302;2022-11-15T06:16:23;5.13;96.14
66119;DHT22;52912;48.564;9.302;2022-11-15T06:18:49;5.13;96.64
66119;DHT22;52912;48.564;9.302;2022-11-15T06:21:14;5.11;96.25
66119;DHT22;52912;48.564;9.302;2022-11-15T06:23:41;5.13;96.37
66119;DHT22;52912;48.564;9.302;2022-11-15T06:26:06;5.17;96.03
66119;DHT22;52912;48.564;9.302;2022-11-15T06:28:32;5.15;96.28
66119;DHT22;52912;48.564;9.302;2022-11-15T06:31:02;5.03;96.65
66119;DHT22;52912;48.564;9.302;2022-11-15T06:33:28;5.01;96.56
66119;DHT22;52912;48.564;9.302;2022-11-15T06:35:53;4.94;96.84
66119;DHT22;52912;48.564;9.302;2022-11-15T06:38:22;4.91;96.90
66119;DHT22;52912;48.564;9.302;2022-11-15T06:40:49;4.91;97.11
66119;DHT22;52912;48.564;9.302;2022-11-15T06:43:14;5.05;97.14
66119;DHT22;52912;48.564;9.302;2022-11-15T06:45:40;5.01;97.36
66119;DHT22;52912;48.564;9.302;2022-11-15T06:48:05;5.07;97.01
66119;DHT22;52912;48.564;9.302;2022-11-15T06:50:31;5.05;97.13
66119;DHT22;52912;48.564;9.302;2022-11-15T06:53:01;5.10;97.09
66119;DHT22;52912;48.564;9.302;2022-11-15T06:55:26;5.15;97.13
66119;DHT22;52912;48.564;9.302;2022-11-15T06:57:53;5.17;97.00
66119;DHT22;52912;48.564;9.302;2022-11-15T07:00:20;5.20;96.94
66119;DHT22;52912;48.564;9.302;2022-11-15T07:02:45;5.14;96.99
66119;DHT22;52912;48.564;9.302;2022-11-15T07:05:11;5.14;96.62
66119;DHT22;52912;48.564;9.302;2022-11-15T07:07:37;5.13;96.50
66119;DHT22;52912;48.564;9.302;2022-11-15T07:10:03;5.11;96.09
66119;DHT22;52912;48.564;9.302;2022-11-15T07:12:29;5.21;96.02
66119;DHT22;52912;48.564;9.302;2022-11-15T07:14:56;5.14;96.27
66119;DHT22;52912;48.564;9.302;2022-11-15T07:17:21;5.10;96.30
66119;DHT22;52912;48.564;9.302;2022-11-15T07:19:47;5.15;96.17
66119;DHT22;52912;48.564;9.302;2022-11-15T07:22:12;5.21;96.11
66119;DHT22;52912;48.564;9.302;2022-11-15T07:24:38;5.34;95.94
66119;DHT22;52912;48.564;9.302;2022-11-15T07:27:03;5.53;95.46
66119;DHT22;52912;48.564;9.302;2022-11-15T07:29:29;5.63;95.40
66119;DHT22;52912;48.564;9.302;2022-11-15T07:31:56;5.73;95.32
66119;DHT22;52912;48.564;9.302;2022-11-15T07:34:21;5.83;95.10
66119;DHT22;52912;48.564;9.302;2022-11-15T07:36:47;5.93;94.81
66119;DHT22;52912;48.564;9.302;2022-11-15T07:39:12;6.01;94.58
66119;DHT22;52912;48.564;9.302;2022-11-15T07:41:38;6.11;94.61
66119;DHT22;52912;48.564;9.302;2022-11-15T07:44:03;6.21;94.33
66119;DHT22;52912;48.564;9.302;2022-11-15T07:46:29;6.26;94.35
66119;DHT22;52912;48.564;9.302;2022-11-15T07:48:56;6.38;94.40
66119;DHT22;52912;48.564;9.302;2022-11-15T07:51:22;6.50;93.98
66119;DHT22;52912;48.564;9.302;2022-11-15T07:53:47;6.76;93.34
66119;DHT22;52912;48.564;9.302;2022-11-15T07:56:13;6.97;92.71
66119;DHT22;52912;48.564;9.302;2022-11-15T07:58:38;7.30;93.09
66119;DHT22;52912;48.564;9.302;2022-11-15T08:01:05;7.60;92.66
66119;DHT22;52912;48.564;9.302;2022-11-15T08:03:30;7.90;92.80
66119;DHT22;52912;48.564;9.302;2022-11-15T08:05:58;8.13;91.75
66119;DHT22;52912;48.564;9.302;2022-11-15T08:08:23;8.29;90.82
66119;DHT22;52912;48.564;9.302;2022-11-15T08:10:49;8.11;90.73
66119;DHT22;52912;48.564;9.302;2022-11-15T08:13:14;8.11;90.78
66119;DHT22;52912;48.564;9.302;2022-11-15T08:15:40;8.02;91.09
66119;DHT22;52912;48.564;9.302;2022-11-15T08:18:08;7.98;91.45
66119;DHT22;52912;48.564;9.302;2022-11-15T08:20:34;7.92;91.59
66119;DHT22;52912;48.564;9.302;2022-11-15T08:23:02;7.88;91.24
66119;DHT22;52912;48.564;9.302;2022-11-15T08:25:29;7.88;91.05
66119;DHT22;52912;48.564;9.302;2022-11-15T08:27:57;7.92;91.43
66119;DHT22;52912;48.564;9.302;2022-11-15T08:30:23;7.91;91.83
66119;DHT22;52912;48.564;9.302;2022-11-15T08:32:49;8.01;91.74
66119;DHT22;52912;48.564;9.302;2022-11-15T08:35:15;8.12;91.57
66119;DHT22;52912;48.564;9.302;2022-11-15T08:37:40;8.43;91.01
66119;DHT22;52912;48.564;9.302;2022-11-15T08:40:08;8.57;90.41
66119;DHT22;52912;48.564;9.302;2022-11-15T08:42:34;8.54;90.33
66119;DHT22;52912;48.564;9.302;2022-11-15T08:44:59;8.53;90.10
66119;DHT22;52912;48.564;9.302;2022-11-15T08:47:25;8.85;89.59
66119;DHT22;52912;48.564;9.302;2022-11-15T08:49:50;9.32;88.61
66119;DHT22;52912;48.564;9.302;2022-11-15T08:52:16;9.16;89.30
66119;DHT22;52912;48.564;9.302;2022-11-15T08:54:41;8.99;90.04
66119;DHT22;52912;48.564;9.302;2022-11-15T08:57:08;9.07;89.80
66119;DHT22;52912;48.564;9.302;2022-11-15T08:59:33;9.15;89.24
66119;DHT22;52912;48.564;9.302;2022-11-15T09:01:59;9.22;89.24
66119;DHT22;52912;48.564;9.302;2022-11-15T09:04:24;9.53;88.47
66119;DHT22;52912;48.564;9.302;2022-11-15T09:06:50;9.67;87.41
66119;DHT22;52912;48.564;9.302;2022-11-15T09:09:15;9.65;87.89
66119;DHT22;52912;48.564;9.302;2022-11-15T09:11:41;9.70;87.24
66119;DHT22;52912;48.564;9.302;2022-11-15T09:14:10;9.88;87.02
66119;DHT22;52912;48.564;9.302;2022-11-15T09:16:35;9.87;88.15
66119;DHT22;52912;48.564;9.302;2022-11-15T09:19:01;9.87;88.19
66119;DHT22;52912;48.564;9.302;2022-11-15T09:21:26;9.81;87.90
66119;DHT22;52912;48.564;9.302;2022-11-15T09:23:52;9.89;87.83
66119;DHT22;52912;48.564;9.302;2022-11-15T09:26:18;9.97;88.00
66119;DHT22;52912;48.564;9.302;2022-11-15T09:28:43;9.95;87.98
66119;DHT22;52912;48.564;9.302;2022-11-15T09:31:10;9.84;88.64
66119;DHT22;52912;48.564;9.302;2022-11-15T09:33:36;9.85;88.61
66119;DHT22;52912;48.564;9.302;2022-11-15T09:36:04;9.74;89.62
66119;DHT22;52912;48.564;9.302;2022-11-15T09:38:30;9.70;89.54
66119;DHT22;52912;48.564;9.302;2022-11-15T09:41:08;9.67;89.64
66119;DHT22;52912;48.564;9.302;2022-11-15T09:43:45;9.61;89.24
66119;DHT22;52912;48.564;9.302;2022-11-15T09:46:19;9.89;88.89
66119;DHT22;52912;48.564;9.302;2022-11-15T09:48:54;10.35;87.09
66119;DHT22;52912;48.564;9.302;2022-11-15T09:51:29;10.54;85.11
66119;DHT22;52912;48.564;9.302;2022-11-15T09:53:59;10.56;85.27
66119;DHT22;52912;48.564;9.302;2022-11-15T09:56:27;10.70;84.44
66119;DHT22;52912;48.564;9.302;2022-11-15T09:59:01;10.64;84.22
66119;DHT22;52912;48.564;9.302;2022-11-15T10:01:39;10.68;84.26
66119;DHT22;52912;48.564;9.302;2022-11-15T10:04:06;10.68;84.29
66119;DHT22;52912;48.564;9.302;2022-11-15T10:06:34;10.88;83.72
66119;DHT22;52912;48.564;9.302;2022-11-15T10:09:06;10.94;83.50
66119;DHT22;52912;48.564;9.302;2022-11-15T10:11:36;11.34;80.61
66119;DHT22;52912;48.564;9.302;2022-11-15T10:14:05;12.04;78.74
66119;DHT22;52912;48.564;9.302;2022-11-15T10:17:01;12.34;77.17
66119;DHT22;52912;48.564;9.302;2022-11-15T10:19:36;12.65;75.68
66119;DHT22;52912;48.564;9.302;2022-11-15T10:22:16;12.69;75.69
66119;DHT22;52912;48.564;9.302;2022-11-15T10:24:44;12.43;77.20
66119;DHT22;52912;48.564;9.302;2022-11-15T10:27:11;12.30;77.52
66119;DHT22;52912;48.564;9.302;2022-11-15T10:29:45;12.49;76.72
66119;DHT22;52912;48.564;9.302;2022-11-15T10:32:13;12.56;76.55
66119;DHT22;52912;48.564;9.302;2022-11-15T10:34:40;12.41;77.60
66119;DHT22;52912;48.564;9.302;2022-11-15T10:37:06;12.44;77.96
66119;DHT22;52912;48.564;9.302;2022-11-15T10:39:31;12.43;77.87
66119;DHT22;52912;48.564;9.302;2022-11-15T10:41:57;12.51;78.40
66119;DHT22;52912;48.564;9.302;2022-11-15T10:44:25;12.64;78.78
66119;DHT22;52912;48.564;9.302;2022-11-15T10:47:22;12.58;79.13
66119;DHT22;52912;48.564;9.302;2022-11-15T10:49:57;12.43;79.47
66119;DHT22;52912;48.564;9.302;2022-11-15T10:52:23;12.34;80.63
66119;DHT22;52912;48.564;9.302;2022-11-15T10:54:51;12.32;82.12
66119;DHT22;52912;48.564;9.302;2022-11-15T10:57:18;12.23;81.71
66119;DHT22;52912;48.564;9.302;2022-11-15T10:59:46;12.29;81.95
66119;DHT22;52912;48.564;9.302;2022-11-15T11:02:33;12.39;82.31
66119;DHT22;52912;48.564;9.302;2022-11-15T11:05:00;12.32;82.61
66119;DHT22;52912;48.564;9.302;2022-11-15T11:07:27;12.25;82.21
66119;DHT22;52912;48.564;9.302;2022-11-15T11:09:58;12.22;81.77
66119;DHT22;52912;48.564;9.302;2022-11-15T11:12:28;12.26;82.07
66119;DHT22;52912;48.564;9.302;2022-11-15T11:14:53;12.26;82.25
66119;DHT22;52912;48.564;9.302;2022-11-15T11:17:24;12.30;82.03
66119;DHT22;52912;48.564;9.302;2022-11-15T11:20:00;12.37;81.96
66119;DHT22;52912;48.564;9.302;2022-11-15T11:22:32;12.41;81.90
66119;DHT22;52912;48.564;9.302;2022-11-15T11:25:08;12.40;81.88
66119;DHT22;52912;48.564;9.302;2022-11-15T11:27:43;12.37;81.51
66119;DHT22;52912;48.564;9.302;2022-11-15T11:30:12;12.36;81.51
66119;DHT22;52912;48.564;9.302;2022-11-15T11:40:29;12.50;83.53
66119;DHT22;52912;48.564;9.302;2022-11-15T11:42:59;12.58;83.53
66119;DHT22;52912;48.564;9.302;2022-11-15T13:06:38;13.08;80.70
66119;DHT22;52912;48.564;9.302;2022-11-15T13:15:33;13.19;79.99
66119;DHT22;52912;48.564;9.302;2022-11-15T13:17:58;13.22;79.44
66119;DHT22;52912;48.564;9.302;2022-11-15T13:20:45;13.24;79.69
66119;DHT22;52912;48.564;9.302;2022-11-15T13:23:12;13.26;79.77
66119;DHT22;52912;48.564;9.302;2022-11-15T13:26:07;13.29;80.63
66119;DHT22;52912;48.564;9.302;2022-11-15T13:28:36;13.44;79.83
66119;DHT22;52912;48.564;9.302;2022-11-15T13:31:16;13.46;80.17
66119;DHT22;52912;48.564;9.302;2022-11-15T13:33:44;13.53;79.84
66119;DHT22;52912;48.564;9.302;2022-11-15T13:36:15;13.57;80.15
66119;DHT22;52912;48.564;9.302;2022-11-15T13:38:42;13.53;81.40
66119;DHT22;52912;48.564;9.302;2022-11-15T13:41:18;13.54;81.48
66119;DHT22;52912;48.564;9.302;2022-11-15T13:43:44;13.50;81.97
66119;DHT22;52912;48.564;9.302;2022-11-15T13:46:11;13.50;82.25
66119;DHT22;52912;48.564;9.302;2022-11-15T13:48:59;13.39;82.64
66119;DHT22;52912;48.564;9.302;2022-11-15T15:39:59;11.82;93.36
66119;DHT22;52912;48.564;9.302;2022-11-15T15:42:26;11.71;93.40
66119;DHT22;52912;48.564;9.302;2022-11-15T15:44:53;11.68;94.01
66119;DHT22;52912;48.564;9.302;2022-11-15T15:47:19;11.68;93.69
66119;DHT22;52912;48.564;9.302;2022-11-15T15:49:45;11.68;93.72
66119;DHT22;52912;48.564;9.302;2022-11-15T15:52:11;11.75;93.13
66119;DHT22;52912;48.564;9.302;2022-11-15T15:54:36;11.74;93.29
66119;DHT22;52912;48.564;9.302;2022-11-15T15:57:03;11.73;90.91
66119;DHT22;52912;48.564;9.302;2022-11-15T15:59:29;11.71;92.51
66119;DHT22;52912;48.564;9.302;2022-11-15T16:01:55;11.77;91.86
66119;DHT22;52912;48.564;9.302;2022-11-15T16:04:20;11.71;90.93
66119;DHT22;52912;48.564;9.302;2022-11-15T16:06:45;11.68;91.74
66119;DHT22;52912;48.564;9.302;2022-11-15T16:09:13;11.70;91.64
66119;DHT22;52912;48.564;9.302;2022-11-15T16:11:39;11.67;89.14
66119;DHT22;52912;48.564;9.302;2022-11-15T16:14:06;11.77;87.76
66119;DHT22;52912;48.564;9.302;2022-11-15T16:16:32;11.77;88.31
66119;DHT22;52912;48.564;9.302;2022-11-15T16:18:57;11.81;88.78
66119;DHT22;52912;48.564;9.302;2022-11-15T16:21:23;11.96;84.21
66119;DHT22;52912;48.564;9.302;2022-11-15T16:23:48;12.06;84.41
66119;DHT22;52912;48.564;9.302;2022-11-15T16:26:19;12.22;84.14
66119;DHT22;52912;48.564;9.302;2022-11-15T16:28:45;12.19;84.96
66119;DHT22;52912;48.564;9.302;2022-11-15T16:31:12;12.21;85.28
66119;DHT22;52912;48.564;9.302;2022-11-15T16:33:38;12.22;84.95
66119;DHT22;52912;48.564;9.302;2022-11-15T16:36:12;12.39;84.68
66119;DHT22;52912;48.564;9.302;2022-11-15T16:38:39;12.51;84.75
66119;DHT22;52912;48.564;9.302;2022-11-15T16:41:05;12.54;85.02
66119;DHT22;52912;48.564;9.302;2022-11-15T16:43:30;12.65;85.12
66119;DHT22;52912;48.564;9.302;2022-11-15T16:45:56;12.56;85.55
66119;DHT22;52912;48.564;9.302;2022-11-15T16:48:24;12.60;85.60
66119;DHT22;52912;48.564;9.302;2022-11-15T16:50:50;12.61;85.44
66119;DHT22;52912;48.564;9.302;2022-11-15T16:53:16;12.53;85.86
66119;DHT22;52912;48.564;9.302;2022-11-15T16:55:41;12.63;85.50
66119;DHT22;52912;48.564;9.302;2022-11-15T16:58:08;12.56;85.92
66119;DHT22;52912;48.564;9.302;2022-11-15T17:00:33;12.53;85.79
66119;DHT22;52912;48.564;9.302;2022-11-15T17:02:59;12.51;85.92
66119;DHT22;52912;48.564;9.302;2022-11-15T17:05:26;12.53;86.03
66119;DHT22;52912;48.564;9.302;2022-11-15T17:07:51;12.47;86.00
66119;DHT22;52912;48.564;9.302;2022-11-15T17:10:17;12.47;85.73
66119;DHT22;52912;48.564;9.302;2022-11-15T17:12:42;12.44;86.06
66119;DHT22;52912;48.564;9.302;2022-11-15T17:15:10;12.34;86.28
66119;DHT22;52912;48.564;9.302;2022-11-15T17:17:36;12.40;85.92
66119;DHT22;52912;48.564;9.302;2022-11-15T17:20:02;12.36;86.03
66119;DHT22;52912;48.564;9.302;2022-11-15T17:22:29;12.28;86.03
66119;DHT22;52912;48.564;9.302;2022-11-15T17:24:54;12.28;85.70
66119;DHT22;52912;48.564;9.302;2022-11-15T17:27:20;12.19;85.88
66119;DHT22;52912;48.564;9.302;2022-11-15T17:29:48;12.26;85.44
66119;DHT22;52912;48.564;9.302;2022-11-15T17:32:13;12.22;85.83
66119;DHT22;52912;48.564;9.302;2022-11-15T17:34:39;12.12;85.87
66119;DHT22;52912;48.564;9.302;2022-11-15T17:37:04;12.23;85.21
66119;DHT22;52912;48.564;9.302;2022-11-15T17:39:31;12.21;85.12
66119;DHT22;52912;48.564;9.302;2022-11-15T17:41:56;12.23;84.86
66119;DHT22;52912;48.564;9.302;2022-11-15T17:44:22;12.21;84.91
66119;DHT22;52912;48.564;9.302;2022-11-15T17:46:47;12.18;84.82
66119;DHT22;52912;48.564;9.302;2022-11-15T17:49:13;12.08;85.00
66119;DHT22;52912;48.564;9.302;2022-11-15T17:51:38;12.06;84.78
66119;DHT22;52912;48.564;9.302;2022-11-15T17:54:03;12.08;84.25
66119;DHT22;52912;48.564;9.302;2022-11-15T17:56:30;12.13;84.15
66119;DHT22;52912;48.564;9.302;2022-11-15T17:58:58;12.08;84.33
66119;DHT22;52912;48.564;9.302;2022-11-15T18:01:25;12.09;84.55
66119;DHT22;52912;48.564;9.302;2022-11-15T18:03:51;12.11;83.98
66119;DHT22;52912;48.564;9.302;2022-11-15T18:06:18;12.04;83.92
66119;DHT22;52912;48.564;9.302;2022-11-15T18:08:45;12.01;83.82
66119;DHT22;52912;48.564;9.302;2022-11-15T18:11:14;12.11;83.31
66119;DHT22;52912;48.564;9.302;2022-11-15T18:13:42;12.06;83.56
66119;DHT22;52912;48.564;9.302;2022-11-15T18:16:11;12.01;83.77
66119;DHT22;52912;48.564;9.302;2022-11-15T18:18:37;12.02;83.66
66119;DHT22;52912;48.564;9.302;2022-11-15T18:21:03;11.98;83.84
66119;DHT22;52912;48.564;9.302;2022-11-15T18:23:30;12.02;83.48
66119;DHT22;52912;48.564;9.302;2022-11-15T18:25:56;11.94;83.94
66119;DHT22;52912;48.564;9.302;2022-11-15T18:28:21;11.95;83.98
66119;DHT22;52912;48.564;9.302;2022-11-15T18:30:48;11.95;83.57
66119;DHT22;52912;48.564;9.302;2022-11-15T18:33:13;11.95;83.71
66119;DHT22;52912;48.564;9.302;2022-11-15T18:35:39;11.94;83.02
66119;DHT22;52912;48.564;9.302;2022-11-15T18:38:04;11.95;83.21
66119;DHT22;52912;48.564;9.302;2022-11-15T18:40:30;11.91;83.76
66119;DHT22;52912;48.564;9.302;2022-11-15T18:42:55;11.89;83.67
66119;DHT22;52912;48.564;9.302;2022-11-15T18:45:20;11.91;83.33
66119;DHT22;52912;48.564;9.302;2022-11-15T18:47:47;11.92;83.16
66119;DHT22;52912;48.564;9.302;2022-11-15T18:50:13;11.84;83.85
66119;DHT22;52912;48.564;9.302;2022-11-15T18:52:38;11.74;84.15
66119;DHT22;52912;48.564;9.302;2022-11-15T18:55:04;11.77;83.67
66119;DHT22;52912;48.564;9.302;2022-11-15T18:57:30;11.75;83.63
66119;DHT22;52912;48.564;9.302;2022-11-15T18:59:55;11.71;84.16
66119;DHT22;52912;48.564;9.302;2022-11-15T19:02:20;11.68;84.87
66119;DHT22;52912;48.564;9.302;2022-11-15T19:04:47;11.66;84.73
66119;DHT22;52912;48.564;9.302;2022-11-15T19:07:13;11.70;83.86
66119;DHT22;52912;48.564;9.302;2022-11-15T19:09:38;11.67;83.57